sensor_id;sensor_type;location;lat;lon;timestamp;temperature;humidity
64858;SHT30;51335;51.148;6.950;2023-03-23T00:00:22;12.62;85.91
64858;SHT30;51335;51.148;6.950;2023-03-23T00:00:52;12.64;85.95
64858;SHT30;51335;51.148;6.950;2023-03-23T00:01:23;12.64;85.96
64858;SHT30;51335;51.148;6.950;2023-03-23T00:01:53;12.67;85.95
64858;SHT30;51335;51.148;6.950;2023-03-23T00:02:25;12.68;85.96
64858;SHT30;51335;51.148;6.950;2023-03-23T00:02:55;12.62;85.83
64858;SHT30;51335;51.148;6.950;2023-03-23T00:03:26;12.62;85.87
64858;SHT30;51335;51.148;6.950;2023-03-23T00:03:57;12.61;85.87
64858;SHT30;51335;51.148;6.950;2023-03-23T00:04:27;12.61;85.80
64858;SHT30;51335;51.148;6.950;2023-03-23T00:04:58;12.62;85.89
64858;SHT30;51335;51.148;6.950;2023-03-23T00:05:28;12.60;85.84
64858;SHT30;51335;51.148;6.950;2023-03-23T00:05:59;12.60;86.00
64858;SHT30;51335;51.148;6.950;2023-03-23T00:06:29;12.61;85.91
64858;SHT30;51335;51.148;6.950;2023-03-23T00:07:00;12.57;86.07
64858;SHT30;51335;51.148;6.950;2023-03-23T00:07:30;12.57;86.10
64858;SHT30;51335;51.148;6.950;2023-03-23T00:08:00;12.60;86.14
64858;SHT30;51335;51.148;6.950;2023-03-23T00:08:34;12.64;86.01
64858;SHT30;51335;51.148;6.950;2023-03-23T00:09:05;12.67;85.85
64858;SHT30;51335;51.148;6.950;2023-03-23T00:09:35;12.67;85.84
64858;SHT30;51335;51.148;6.950;2023-03-23T00:10:06;12.64;85.65
64858;SHT30;51335;51.148;6.950;2023-03-23T00:10:36;12.64;85.76
64858;SHT30;51335;51.148;6.950;2023-03-23T00:11:06;12.67;85.80
64858;SHT30;51335;51.148;6.950;2023-03-23T00:11:36;12.71;85.78
64858;SHT30;51335;51.148;6.950;2023-03-23T00:12:07;12.67;85.81
64858;SHT30;51335;51.148;6.950;2023-03-23T00:12:37;12.62;85.85
64858;SHT30;51335;51.148;6.950;2023-03-23T00:13:08;12.61;85.99
64858;SHT30;51335;51.148;6.950;2023-03-23T00:13:38;12.61;86.07
64858;SHT30;51335;51.148;6.950;2023-03-23T00:14:10;12.62;85.97
64858;SHT30;51335;51.148;6.950;2023-03-23T00:14:40;12.64;85.87
64858;SHT30;51335;51.148;6.950;2023-03-23T00:15:10;12.67;85.62
64858;SHT30;51335;51.148;6.950;2023-03-23T00:15:40;12.65;85.67
64858;SHT30;51335;51.148;6.950;2023-03-23T00:16:12;12.64;85.65
64858;SHT30;51335;51.148;6.950;2023-03-23T00:16:43;12.61;85.75
64858;SHT30;51335;51.148;6.950;2023-03-23T00:17:13;12.61;85.88
64858;SHT30;51335;51.148;6.950;2023-03-23T00:17:43;12.67;85.87
64858;SHT30;51335;51.148;6.950;2023-03-23T00:18:15;12.68;85.77
64858;SHT30;51335;51.148;6.950;2023-03-23T00:18:49;12.65;85.72
64858;SHT30;51335;51.148;6.950;2023-03-23T00:19:19;12.67;85.78
64858;SHT30;51335;51.148;6.950;2023-03-23T00:19:49;12.72;85.44
64858;SHT30;51335;51.148;6.950;2023-03-23T00:20:20;12.72;85.36
64858;SHT30;51335;51.148;6.950;2023-03-23T00:20:52;12.75;85.27
64858;SHT30;51335;51.148;6.950;2023-03-23T00:21:24;12.75;85.08
64858;SHT30;51335;51.148;6.950;2023-03-23T00:21:55;12.79;84.98
64858;SHT30;51335;51.148;6.950;2023-03-23T00:22:27;12.81;85.10
64858;SHT30;51335;51.148;6.950;2023-03-23T00:22:58;12.79;84.89
64858;SHT30;51335;51.148;6.950;2023-03-23T00:23:28;12.81;84.92
64858;SHT30;51335;51.148;6.950;2023-03-23T00:24:07;12.74;84.94
64858;SHT30;51335;51.148;6.950;2023-03-23T00:24:37;12.81;84.99
64858;SHT30;51335;51.148;6.950;2023-03-23T00:25:08;12.82;85.00
64858;SHT30;51335;51.148;6.950;2023-03-23T00:25:38;12.82;84.90
64858;SHT30;51335;51.148;6.950;2023-03-23T00:26:08;12.85;84.79
64858;SHT30;51335;51.148;6.950;2023-03-23T00:26:40;12.85;84.61
64858;SHT30;51335;51.148;6.950;2023-03-23T00:27:11;12.84;84.63
64858;SHT30;51335;51.148;6.950;2023-03-23T00:27:41;12.85;84.71
64858;SHT30;51335;51.148;6.950;2023-03-23T00:28:11;12.88;84.38
64858;SHT30;51335;51.148;6.950;2023-03-23T00:28:41;12.85;84.42
64858;SHT30;51335;51.148;6.950;2023-03-23T00:29:15;12.84;84.57
64858;SHT30;51335;51.148;6.950;2023-03-23T00:29:46;12.81;84.70
64858;SHT30;51335;51.148;6.950;2023-03-23T00:30:16;12.79;84.66
64858;SHT30;51335;51.148;6.950;2023-03-23T00:30:47;12.82;84.67
64858;SHT30;51335;51.148;6.950;2023-03-23T00:31:17;12.82;84.57
64858;SHT30;51335;51.148;6.950;2023-03-23T00:31:48;12.85;84.41
64858;SHT30;51335;51.148;6.950;2023-03-23T00:32:20;12.85;84.46
64858;SHT30;51335;51.148;6.950;2023-03-23T00:32:50;12.85;84.51
64858;SHT30;51335;51.148;6.950;2023-03-23T00:33:20;12.82;84.51
64858;SHT30;51335;51.148;6.950;2023-03-23T00:33:50;12.79;84.70
64858;SHT30;51335;51.148;6.950;2023-03-23T00:34:22;12.84;84.53
64858;SHT30;51335;51.148;6.950;2023-03-23T00:34:53;12.84;84.52
64858;SHT30;51335;51.148;6.950;2023-03-23T00:35:24;12.84;84.49
64858;SHT30;51335;51.148;6.950;2023-03-23T00:35:55;12.82;84.54
64858;SHT30;51335;51.148;6.950;2023-03-23T00:36:25;12.82;84.66
64858;SHT30;51335;51.148;6.950;2023-03-23T00:36:55;12.85;84.49
64858;SHT30;51335;51.148;6.950;2023-03-23T00:37:26;12.85;84.41
64858;SHT30;51335;51.148;6.950;2023-03-23T00:37:56;12.87;84.45
64858;SHT30;51335;51.148;6.950;2023-03-23T00:38:27;12.85;84.46
64858;SHT30;51335;51.148;6.950;2023-03-23T00:38:57;12.87;84.47
64858;SHT30;51335;51.148;6.950;2023-03-23T00:39:28;12.87;84.34
64858;SHT30;51335;51.148;6.950;2023-03-23T00:39:58;12.87;84.15
64858;SHT30;51335;51.148;6.950;2023-03-23T00:40:28;12.87;84.13
64858;SHT30;51335;51.148;6.950;2023-03-23T00:40:59;12.84;84.12
64858;SHT30;51335;51.148;6.950;2023-03-23T00:41:29;12.85;84.30
64858;SHT30;51335;51.148;6.950;2023-03-23T00:42:00;12.82;84.39
64858;SHT30;51335;51.148;6.950;2023-03-23T00:42:30;12.81;84.46
64858;SHT30;51335;51.148;6.950;2023-03-23T00:43:01;12.84;84.49
64858;SHT30;51335;51.148;6.950;2023-03-23T00:43:32;12.82;84.57
64858;SHT30;51335;51.148;6.950;2023-03-23T00:44:03;12.78;84.68
64858;SHT30;51335;51.148;6.950;2023-03-23T00:44:33;12.78;84.74
64858;SHT30;51335;51.148;6.950;2023-03-23T00:45:04;12.74;84.84
64858;SHT30;51335;51.148;6.950;2023-03-23T00:45:34;12.75;84.80
64858;SHT30;51335;51.148;6.950;2023-03-23T00:46:05;12.77;84.71
64858;SHT30;51335;51.148;6.950;2023-03-23T00:46:35;12.77;84.55
64858;SHT30;51335;51.148;6.950;2023-03-23T00:47:06;12.82;84.26
64858;SHT30;51335;51.148;6.950;2023-03-23T00:47:37;12.84;84.22
64858;SHT30;51335;51.148;6.950;2023-03-23T00:48:07;12.81;84.14
64858;SHT30;51335;51.148;6.950;2023-03-23T00:48:37;12.84;84.32
64858;SHT30;51335;51.148;6.950;2023-03-23T00:49:08;12.82;84.20
64858;SHT30;51335;51.148;6.950;2023-03-23T00:49:38;12.82;84.29
64858;SHT30;51335;51.148;6.950;2023-03-23T00:50:09;12.87;84.14
64858;SHT30;51335;51.148;6.950;2023-03-23T00:50:39;12.89;84.07
64858;SHT30;51335;51.148;6.950;2023-03-23T00:51:10;12.88;83.93
64858;SHT30;51335;51.148;6.950;2023-03-23T00:51:41;12.87;83.88
64858;SHT30;51335;51.148;6.950;2023-03-23T00:52:11;12.91;83.89
64858;SHT30;51335;51.148;6.950;2023-03-23T00:52:41;12.91;83.86
64858;SHT30;51335;51.148;6.950;2023-03-23T00:53:12;12.88;83.90
64858;SHT30;51335;51.148;6.950;2023-03-23T00:53:43;12.93;83.92
64858;SHT30;51335;51.148;6.950;2023-03-23T00:54:13;12.93;83.72
64858;SHT30;51335;51.148;6.950;2023-03-23T00:54:44;12.96;83.74
64858;SHT30;51335;51.148;6.950;2023-03-23T00:55:14;12.98;83.53
64858;SHT30;51335;51.148;6.950;2023-03-23T00:55:45;12.96;83.44
64858;SHT30;51335;51.148;6.950;2023-03-23T00:56:16;12.93;83.48
64858;SHT30;51335;51.148;6.950;2023-03-23T00:56:47;12.92;83.55
64858;SHT30;51335;51.148;6.950;2023-03-23T00:57:17;12.93;83.70
64858;SHT30;51335;51.148;6.950;2023-03-23T00:57:48;12.91;83.72
64858;SHT30;51335;51.148;6.950;2023-03-23T00:58:18;12.91;83.75
64858;SHT30;51335;51.148;6.950;2023-03-23T00:58:48;12.87;83.84
64858;SHT30;51335;51.148;6.950;2023-03-23T00:59:19;12.89;83.83
64858;SHT30;51335;51.148;6.950;2023-03-23T00:59:51;12.92;83.78
64858;SHT30;51335;51.148;6.950;2023-03-23T01:00:21;12.91;83.66
64858;SHT30;51335;51.148;6.950;2023-03-23T01:00:53;12.91;83.66
64858;SHT30;51335;51.148;6.950;2023-03-23T01:01:23;12.93;83.70
64858;SHT30;51335;51.148;6.950;2023-03-23T01:01:54;12.93;83.59
64858;SHT30;51335;51.148;6.950;2023-03-23T01:02:24;12.91;83.59
64858;SHT30;51335;51.148;6.950;2023-03-23T01:02:54;12.88;83.74
64858;SHT30;51335;51.148;6.950;2023-03-23T01:03:25;12.89;83.89
64858;SHT30;51335;51.148;6.950;2023-03-23T01:03:55;12.85;83.98
64858;SHT30;51335;51.148;6.950;2023-03-23T01:04:25;12.88;84.09
64858;SHT30;51335;51.148;6.950;2023-03-23T01:04:55;12.88;84.03
64858;SHT30;51335;51.148;6.950;2023-03-23T01:05:26;12.91;83.96
64858;SHT30;51335;51.148;6.950;2023-03-23T01:05:56;12.87;83.76
64858;SHT30;51335;51.148;6.950;2023-03-23T01:06:27;12.84;83.97
64858;SHT30;51335;51.148;6.950;2023-03-23T01:06:58;12.85;84.08
64858;SHT30;51335;51.148;6.950;2023-03-23T01:07:28;12.88;84.08
64858;SHT30;51335;51.148;6.950;2023-03-23T01:07:58;12.88;83.99
64858;SHT30;51335;51.148;6.950;2023-03-23T01:08:29;12.88;83.95
64858;SHT30;51335;51.148;6.950;2023-03-23T01:08:59;12.85;83.86
64858;SHT30;51335;51.148;6.950;2023-03-23T01:09:29;12.85;83.93
64858;SHT30;51335;51.148;6.950;2023-03-23T01:09:59;12.84;83.96
64858;SHT30;51335;51.148;6.950;2023-03-23T01:10:30;12.84;83.94
64858;SHT30;51335;51.148;6.950;2023-03-23T01:11:04;12.79;84.05
64858;SHT30;51335;51.148;6.950;2023-03-23T01:11:35;12.81;84.11
64858;SHT30;51335;51.148;6.950;2023-03-23T01:12:05;12.84;84.23
64858;SHT30;51335;51.148;6.950;2023-03-23T01:12:36;12.85;84.14
64858;SHT30;51335;51.148;6.950;2023-03-23T01:13:07;12.81;84.10
64858;SHT30;51335;51.148;6.950;2023-03-23T01:13:37;12.82;84.00
64858;SHT30;51335;51.148;6.950;2023-03-23T01:14:08;12.84;84.12
64858;SHT30;51335;51.148;6.950;2023-03-23T01:14:39;12.82;84.15
64858;SHT30;51335;51.148;6.950;2023-03-23T01:15:13;12.85;84.07
64858;SHT30;51335;51.148;6.950;2023-03-23T01:15:45;12.81;84.14
64858;SHT30;51335;51.148;6.950;2023-03-23T01:16:16;12.79;84.29
64858;SHT30;51335;51.148;6.950;2023-03-23T01:16:46;12.78;84.30
64858;SHT30;51335;51.148;6.950;2023-03-23T01:17:16;12.85;84.21
64858;SHT30;51335;51.148;6.950;2023-03-23T01:17:47;12.85;84.01
64858;SHT30;51335;51.148;6.950;2023-03-23T01:18:17;12.84;83.99
64858;SHT30;51335;51.148;6.950;2023-03-23T01:18:47;12.82;84.06
64858;SHT30;51335;51.148;6.950;2023-03-23T01:19:18;12.85;84.10
64858;SHT30;51335;51.148;6.950;2023-03-23T01:19:48;12.82;84.00
64858;SHT30;51335;51.148;6.950;2023-03-23T01:20:18;12.85;84.08
64858;SHT30;51335;51.148;6.950;2023-03-23T01:20:49;12.82;84.09
64858;SHT30;51335;51.148;6.950;2023-03-23T01:21:20;12.84;84.14
64858;SHT30;51335;51.148;6.950;2023-03-23T01:21:51;12.84;84.05
64858;SHT30;51335;51.148;6.950;2023-03-23T01:22:21;12.84;84.11
64858;SHT30;51335;51.148;6.950;2023-03-23T01:22:52;12.88;84.14
64858;SHT30;51335;51.148;6.950;2023-03-23T01:23:22;12.87;84.23
64858;SHT30;51335;51.148;6.950;2023-03-23T01:23:53;12.88;84.38
64858;SHT30;51335;51.148;6.950;2023-03-23T01:24:23;12.91;84.32
64858;SHT30;51335;51.148;6.950;2023-03-23T01:24:53;12.89;84.35
64858;SHT30;51335;51.148;6.950;2023-03-23T01:25:23;12.84;84.45
64858;SHT30;51335;51.148;6.950;2023-03-23T01:25:54;12.79;84.48
64858;SHT30;51335;51.148;6.950;2023-03-23T01:26:26;12.82;84.61
64858;SHT30;51335;51.148;6.950;2023-03-23T01:26:56;12.75;84.70
64858;SHT30;51335;51.148;6.950;2023-03-23T01:27:26;12.77;84.80
64858;SHT30;51335;51.148;6.950;2023-03-23T01:27:58;12.81;84.78
64858;SHT30;51335;51.148;6.950;2023-03-23T01:28:28;12.79;84.76
64858;SHT30;51335;51.148;6.950;2023-03-23T01:28:58;12.84;84.74
64858;SHT30;51335;51.148;6.950;2023-03-23T01:29:29;12.87;84.56
64858;SHT30;51335;51.148;6.950;2023-03-23T01:29:59;12.87;84.45
64858;SHT30;51335;51.148;6.950;2023-03-23T01:30:29;12.85;84.64
64858;SHT30;51335;51.148;6.950;2023-03-23T01:31:05;12.85;84.83
64858;SHT30;51335;51.148;6.950;2023-03-23T01:31:36;12.84;84.92
64858;SHT30;51335;51.148;6.950;2023-03-23T01:32:06;12.84;85.24
64858;SHT30;51335;51.148;6.950;2023-03-23T01:32:36;12.84;85.25
64858;SHT30;51335;51.148;6.950;2023-03-23T01:33:07;12.84;85.24
64858;SHT30;51335;51.148;6.950;2023-03-23T01:33:38;12.79;85.26
64858;SHT30;51335;51.148;6.950;2023-03-23T01:34:09;12.79;85.43
64858;SHT30;51335;51.148;6.950;2023-03-23T01:34:39;12.75;85.61
64858;SHT30;51335;51.148;6.950;2023-03-23T01:35:09;12.82;85.86
64858;SHT30;51335;51.148;6.950;2023-03-23T01:35:39;12.75;85.92
64858;SHT30;51335;51.148;6.950;2023-03-23T01:36:15;12.77;85.99
64858;SHT30;51335;51.148;6.950;2023-03-23T01:36:46;12.81;86.24
64858;SHT30;51335;51.148;6.950;2023-03-23T01:37:16;12.78;86.24
64858;SHT30;51335;51.148;6.950;2023-03-23T01:37:46;12.75;86.30
64858;SHT30;51335;51.148;6.950;2023-03-23T01:38:17;12.71;86.41
64858;SHT30;51335;51.148;6.950;2023-03-23T01:38:48;12.68;86.70
64858;SHT30;51335;51.148;6.950;2023-03-23T01:39:20;12.68;86.84
64858;SHT30;51335;51.148;6.950;2023-03-23T01:39:50;12.65;86.93
64858;SHT30;51335;51.148;6.950;2023-03-23T01:40:20;12.67;87.09
64858;SHT30;51335;51.148;6.950;2023-03-23T01:40:50;12.67;87.19
64858;SHT30;51335;51.148;6.950;2023-03-23T01:41:21;12.64;87.25
64858;SHT30;51335;51.148;6.950;2023-03-23T01:41:52;12.64;87.43
64858;SHT30;51335;51.148;6.950;2023-03-23T01:42:34;12.57;87.50
64858;SHT30;51335;51.148;6.950;2023-03-23T01:43:13;12.55;88.00
64858;SHT30;51335;51.148;6.950;2023-03-23T01:45:49;12.48;88.34
64858;SHT30;51335;51.148;6.950;2023-03-23T01:46:19;12.48;88.32
64858;SHT30;51335;51.148;6.950;2023-03-23T01:46:49;12.47;88.41
64858;SHT30;51335;51.148;6.950;2023-03-23T01:47:21;12.47;88.65
64858;SHT30;51335;51.148;6.950;2023-03-23T01:47:56;12.41;88.58
64858;SHT30;51335;51.148;6.950;2023-03-23T01:48:35;12.41;88.76
64858;SHT30;51335;51.148;6.950;2023-03-23T01:49:20;12.40;88.90
64858;SHT30;51335;51.148;6.950;2023-03-23T01:49:51;12.36;89.04
64858;SHT30;51335;51.148;6.950;2023-03-23T01:50:24;12.33;89.15
64858;SHT30;51335;51.148;6.950;2023-03-23T01:51:01;12.27;89.24
64858;SHT30;51335;51.148;6.950;2023-03-23T01:51:36;12.29;89.55
64858;SHT30;51335;51.148;6.950;2023-03-23T01:52:20;12.27;89.77
64858;SHT30;51335;51.148;6.950;2023-03-23T01:52:53;12.23;89.75
64858;SHT30;51335;51.148;6.950;2023-03-23T01:53:28;12.19;89.92
64858;SHT30;51335;51.148;6.950;2023-03-23T01:54:03;12.19;90.03
64858;SHT30;51335;51.148;6.950;2023-03-23T01:54:35;12.22;90.18
64858;SHT30;51335;51.148;6.950;2023-03-23T01:55:06;12.19;90.27
64858;SHT30;51335;51.148;6.950;2023-03-23T01:55:39;12.14;90.39
64858;SHT30;51335;51.148;6.950;2023-03-23T01:56:13;12.10;90.50
64858;SHT30;51335;51.148;6.950;2023-03-23T01:56:47;12.09;90.69
64858;SHT30;51335;51.148;6.950;2023-03-23T01:57:21;12.06;90.86
64858;SHT30;51335;51.148;6.950;2023-03-23T01:57:54;12.00;91.03
64858;SHT30;51335;51.148;6.950;2023-03-23T01:58:27;12.00;91.19
64858;SHT30;51335;51.148;6.950;2023-03-23T01:58:59;12.04;91.32
64858;SHT30;51335;51.148;6.950;2023-03-23T01:59:30;12.06;91.37
64858;SHT30;51335;51.148;6.950;2023-03-23T02:00:05;12.10;91.31
64858;SHT30;51335;51.148;6.950;2023-03-23T02:00:38;12.07;91.11
64858;SHT30;51335;51.148;6.950;2023-03-23T02:01:10;12.03;91.15
64858;SHT30;51335;51.148;6.950;2023-03-23T02:01:42;12.03;91.34
64858;SHT30;51335;51.148;6.950;2023-03-23T02:02:14;12.04;91.30
64858;SHT30;51335;51.148;6.950;2023-03-23T02:02:47;12.03;91.34
64858;SHT30;51335;51.148;6.950;2023-03-23T02:03:18;12.04;91.40
64858;SHT30;51335;51.148;6.950;2023-03-23T02:03:48;11.99;91.47
64858;SHT30;51335;51.148;6.950;2023-03-23T02:04:20;11.99;91.65
64858;SHT30;51335;51.148;6.950;2023-03-23T02:04:51;12.00;91.69
64858;SHT30;51335;51.148;6.950;2023-03-23T02:05:32;11.96;91.78
64858;SHT30;51335;51.148;6.950;2023-03-23T02:06:03;11.94;91.90
64858;SHT30;51335;51.148;6.950;2023-03-23T02:06:34;11.94;91.98
64858;SHT30;51335;51.148;6.950;2023-03-23T02:07:04;11.92;92.01
64858;SHT30;51335;51.148;6.950;2023-03-23T02:07:34;11.90;92.03
64858;SHT30;51335;51.148;6.950;2023-03-23T02:08:06;11.96;92.27
64858;SHT30;51335;51.148;6.950;2023-03-23T02:08:38;11.93;92.16
64858;SHT30;51335;51.148;6.950;2023-03-23T02:09:08;11.97;92.02
64858;SHT30;51335;51.148;6.950;2023-03-23T02:09:39;11.96;92.03
64858;SHT30;51335;51.148;6.950;2023-03-23T02:10:10;11.97;92.01
64858;SHT30;51335;51.148;6.950;2023-03-23T02:10:40;12.04;92.03
64858;SHT30;51335;51.148;6.950;2023-03-23T02:11:21;11.99;91.90
64858;SHT30;51335;51.148;6.950;2023-03-23T02:11:53;11.97;92.06
64858;SHT30;51335;51.148;6.950;2023-03-23T02:12:23;11.89;92.10
64858;SHT30;51335;51.148;6.950;2023-03-23T02:12:53;11.92;92.19
64858;SHT30;51335;51.148;6.950;2023-03-23T02:13:24;11.90;92.31
64858;SHT30;51335;51.148;6.950;2023-03-23T02:13:55;11.90;92.39
64858;SHT30;51335;51.148;6.950;2023-03-23T02:14:28;11.93;92.42
64858;SHT30;51335;51.148;6.950;2023-03-23T02:14:58;11.94;92.34
64858;SHT30;51335;51.148;6.950;2023-03-23T02:16:34;11.89;92.15
64858;SHT30;51335;51.148;6.950;2023-03-23T02:17:09;11.85;92.46
64858;SHT30;51335;51.148;6.950;2023-03-23T02:18:46;11.81;92.64
64858;SHT30;51335;51.148;6.950;2023-03-23T02:24:10;11.76;92.87
64858;SHT30;51335;51.148;6.950;2023-03-23T02:25:48;11.69;93.02
64858;SHT30;51335;51.148;6.950;2023-03-23T02:26:50;11.65;93.08
64858;SHT30;51335;51.148;6.950;2023-03-23T02:30:19;11.59;93.31
64858;SHT30;51335;51.148;6.950;2023-03-23T02:32:16;11.55;93.67
64858;SHT30;51335;51.148;6.950;2023-03-23T02:34:05;11.64;93.29
64858;SHT30;51335;51.148;6.950;2023-03-23T02:34:43;11.64;93.23
64858;SHT30;51335;51.148;6.950;2023-03-23T02:35:24;11.62;93.22
64858;SHT30;51335;51.148;6.950;2023-03-23T02:36:05;11.62;93.38
64858;SHT30;51335;51.148;6.950;2023-03-23T02:36:47;11.57;93.31
64858;SHT30;51335;51.148;6.950;2023-03-23T02:37:22;11.57;93.30
64858;SHT30;51335;51.148;6.950;2023-03-23T02:38:16;11.55;93.45
64858;SHT30;51335;51.148;6.950;2023-03-23T02:38:55;11.54;93.47
64858;SHT30;51335;51.148;6.950;2023-03-23T02:39:29;11.54;93.49
64858;SHT30;51335;51.148;6.950;2023-03-23T02:40:21;11.58;93.31
64858;SHT30;51335;51.148;6.950;2023-03-23T02:40:55;11.62;93.16
64858;SHT30;51335;51.148;6.950;2023-03-23T02:41:31;11.62;93.03
64858;SHT30;51335;51.148;6.950;2023-03-23T02:42:09;11.61;93.05
64858;SHT30;51335;51.148;6.950;2023-03-23T02:42:43;11.61;92.99
64858;SHT30;51335;51.148;6.950;2023-03-23T02:43:16;11.65;92.89
64858;SHT30;51335;51.148;6.950;2023-03-23T02:43:47;11.61;92.99
64858;SHT30;51335;51.148;6.950;2023-03-23T02:44:19;11.61;93.04
64858;SHT30;51335;51.148;6.950;2023-03-23T02:44:49;11.55;93.01
64858;SHT30;51335;51.148;6.950;2023-03-23T02:45:22;11.61;93.10
64858;SHT30;51335;51.148;6.950;2023-03-23T02:45:55;11.58;92.96
64858;SHT30;51335;51.148;6.950;2023-03-23T02:46:26;11.57;93.06
64858;SHT30;51335;51.148;6.950;2023-03-23T02:46:59;11.57;93.14
64858;SHT30;51335;51.148;6.950;2023-03-23T02:47:31;11.55;93.13
64858;SHT30;51335;51.148;6.950;2023-03-23T02:48:04;11.54;93.16
64858;SHT30;51335;51.148;6.950;2023-03-23T02:48:35;11.54;93.16
64858;SHT30;51335;51.148;6.950;2023-03-23T02:49:08;11.59;93.13
64858;SHT30;51335;51.148;6.950;2023-03-23T02:49:41;11.61;93.01
64858;SHT30;51335;51.148;6.950;2023-03-23T02:50:14;11.61;92.84
64858;SHT30;51335;51.148;6.950;2023-03-23T02:50:49;11.59;92.90
64858;SHT30;51335;51.148;6.950;2023-03-23T02:51:22;11.57;92.93
64858;SHT30;51335;51.148;6.950;2023-03-23T02:51:56;11.58;92.96
64858;SHT30;51335;51.148;6.950;2023-03-23T02:52:31;11.55;92.90
64858;SHT30;51335;51.148;6.950;2023-03-23T02:53:05;11.52;93.15
64858;SHT30;51335;51.148;6.950;2023-03-23T02:53:40;11.52;93.22
64858;SHT30;51335;51.148;6.950;2023-03-23T02:54:12;11.48;93.24
64858;SHT30;51335;51.148;6.950;2023-03-23T02:54:44;11.45;93.46
64858;SHT30;51335;51.148;6.950;2023-03-23T02:55:18;11.46;93.44
64858;SHT30;51335;51.148;6.950;2023-03-23T02:55:50;11.48;93.46
64858;SHT30;51335;51.148;6.950;2023-03-23T02:56:23;11.48;93.45
64858;SHT30;51335;51.148;6.950;2023-03-23T02:56:56;11.45;93.47
64858;SHT30;51335;51.148;6.950;2023-03-23T02:57:28;11.44;93.56
64858;SHT30;51335;51.148;6.950;2023-03-23T02:57:58;11.45;93.62
64858;SHT30;51335;51.148;6.950;2023-03-23T02:58:29;11.42;93.61
64858;SHT30;51335;51.148;6.950;2023-03-23T02:58:59;11.41;93.70
64858;SHT30;51335;51.148;6.950;2023-03-23T02:59:29;11.38;93.75
64858;SHT30;51335;51.148;6.950;2023-03-23T02:59:59;11.41;93.78
64858;SHT30;51335;51.148;6.950;2023-03-23T03:00:30;11.44;93.73
64858;SHT30;51335;51.148;6.950;2023-03-23T03:01:14;11.38;93.71
64858;SHT30;51335;51.148;6.950;2023-03-23T03:01:51;11.41;93.77
64858;SHT30;51335;51.148;6.950;2023-03-23T03:02:25;11.41;93.76
64858;SHT30;51335;51.148;6.950;2023-03-23T03:02:57;11.41;93.77
64858;SHT30;51335;51.148;6.950;2023-03-23T03:03:29;11.44;93.68
64858;SHT30;51335;51.148;6.950;2023-03-23T03:04:03;11.44;93.56
64858;SHT30;51335;51.148;6.950;2023-03-23T03:04:35;11.44;93.42
64858;SHT30;51335;51.148;6.950;2023-03-23T03:05:44;11.48;93.26
64858;SHT30;51335;51.148;6.950;2023-03-23T03:06:52;11.46;93.09
64858;SHT30;51335;51.148;6.950;2023-03-23T03:08:44;11.45;93.03
64858;SHT30;51335;51.148;6.950;2023-03-23T03:10:27;11.42;93.11
64858;SHT30;51335;51.148;6.950;2023-03-23T03:11:07;11.41;93.16
64858;SHT30;51335;51.148;6.950;2023-03-23T03:11:42;11.42;93.11
64858;SHT30;51335;51.148;6.950;2023-03-23T03:13:21;11.46;93.12
64858;SHT30;51335;51.148;6.950;2023-03-23T03:13:55;11.50;92.92
64858;SHT30;51335;51.148;6.950;2023-03-23T03:14:37;11.55;92.70
64858;SHT30;51335;51.148;6.950;2023-03-23T03:15:21;11.51;92.71
64858;SHT30;51335;51.148;6.950;2023-03-23T03:16:07;11.52;92.72
64858;SHT30;51335;51.148;6.950;2023-03-23T03:16:54;11.59;92.53
64858;SHT30;51335;51.148;6.950;2023-03-23T03:17:29;11.59;92.38
64858;SHT30;51335;51.148;6.950;2023-03-23T03:18:14;11.59;92.42
64858;SHT30;51335;51.148;6.950;2023-03-23T03:18:58;11.61;92.41
64858;SHT30;51335;51.148;6.950;2023-03-23T03:19:32;11.62;92.42
64858;SHT30;51335;51.148;6.950;2023-03-23T03:20:06;11.59;92.39
64858;SHT30;51335;51.148;6.950;2023-03-23T03:20:42;11.64;92.48
64858;SHT30;51335;51.148;6.950;2023-03-23T03:21:15;11.62;92.36
64858;SHT30;51335;51.148;6.950;2023-03-23T03:21:49;11.62;92.36
64858;SHT30;51335;51.148;6.950;2023-03-23T03:22:21;11.59;92.25
64858;SHT30;51335;51.148;6.950;2023-03-23T03:22:53;11.62;92.32
64858;SHT30;51335;51.148;6.950;2023-03-23T03:23:25;11.62;92.38
64858;SHT30;51335;51.148;6.950;2023-03-23T03:23:59;11.64;92.26
64858;SHT30;51335;51.148;6.950;2023-03-23T03:24:31;11.66;92.11
64858;SHT30;51335;51.148;6.950;2023-03-23T03:25:01;11.68;91.82
64858;SHT30;51335;51.148;6.950;2023-03-23T03:25:32;11.72;91.69
64858;SHT30;51335;51.148;6.950;2023-03-23T03:26:03;11.76;91.66
64858;SHT30;51335;51.148;6.950;2023-03-23T03:26:35;11.78;91.44
64858;SHT30;51335;51.148;6.950;2023-03-23T03:27:11;11.81;91.21
64858;SHT30;51335;51.148;6.950;2023-03-23T03:27:44;11.81;91.25
64858;SHT30;51335;51.148;6.950;2023-03-23T03:28:17;11.82;91.17
64858;SHT30;51335;51.148;6.950;2023-03-23T03:28:48;11.85;91.09
64858;SHT30;51335;51.148;6.950;2023-03-23T03:29:25;11.82;90.95
64858;SHT30;51335;51.148;6.950;2023-03-23T03:29:58;11.83;91.17
64858;SHT30;51335;51.148;6.950;2023-03-23T03:30:31;11.78;91.22
64858;SHT30;51335;51.148;6.950;2023-03-23T03:31:04;11.78;91.31
64858;SHT30;51335;51.148;6.950;2023-03-23T03:31:39;11.75;91.35
64858;SHT30;51335;51.148;6.950;2023-03-23T03:32:12;11.79;91.37
64858;SHT30;51335;51.148;6.950;2023-03-23T03:32:47;11.76;91.22
64858;SHT30;51335;51.148;6.950;2023-03-23T03:33:19;11.78;91.32
64858;SHT30;51335;51.148;6.950;2023-03-23T03:33:50;11.81;91.18
64858;SHT30;51335;51.148;6.950;2023-03-23T03:34:21;11.79;91.01
64858;SHT30;51335;51.148;6.950;2023-03-23T03:34:51;11.86;90.85
64858;SHT30;51335;51.148;6.950;2023-03-23T03:35:23;11.86;90.58
64858;SHT30;51335;51.148;6.950;2023-03-23T03:35:55;11.89;90.37
64858;SHT30;51335;51.148;6.950;2023-03-23T03:36:28;11.90;90.33
64858;SHT30;51335;51.148;6.950;2023-03-23T03:36:59;11.93;90.16
64858;SHT30;51335;51.148;6.950;2023-03-23T03:37:37;11.93;90.13
64858;SHT30;51335;51.148;6.950;2023-03-23T03:38:09;11.92;90.23
64858;SHT30;51335;51.148;6.950;2023-03-23T03:38:45;11.90;90.28
64858;SHT30;51335;51.148;6.950;2023-03-23T03:39:16;11.92;90.25
64858;SHT30;51335;51.148;6.950;2023-03-23T03:39:46;11.92;90.20
64858;SHT30;51335;51.148;6.950;2023-03-23T03:40:19;11.94;90.19
64858;SHT30;51335;51.148;6.950;2023-03-23T03:40:50;11.93;89.94
64858;SHT30;51335;51.148;6.950;2023-03-23T03:41:20;11.93;90.01
64858;SHT30;51335;51.148;6.950;2023-03-23T03:41:51;11.96;90.13
64858;SHT30;51335;51.148;6.950;2023-03-23T03:42:21;11.96;90.01
64858;SHT30;51335;51.148;6.950;2023-03-23T03:42:51;11.96;89.87
64858;SHT30;51335;51.148;6.950;2023-03-23T03:43:21;12.00;89.61
64858;SHT30;51335;51.148;6.950;2023-03-23T03:43:52;11.99;89.72
64858;SHT30;51335;51.148;6.950;2023-03-23T03:44:22;11.99;89.63